sensor_id;sensor_type;location;lat;lon;timestamp;P1;durP1;ratioP1;P2;durP2;ratioP2
61905;SDS011;47863;55.766;37.672;2022-09-30T00:01:16;17.35;;;8.80;;
61905;SDS011;47863;55.766;37.672;2022-09-30T00:03:41;20.80;;;10.32;;
61905;SDS011;47863;55.766;37.672;2022-09-30T00:06:07;20.48;;;9.98;;
61905;SDS011;47863;55.766;37.672;2022-09-30T00:08:34;18.65;;;9.77;;
61905;SDS011;47863;55.766;37.672;2022-09-30T00:11:02;23.08;;;10.57;;
61905;SDS011;47863;55.766;37.672;2022-09-30T00:13:31;19.20;;;10.10;;
61905;SDS011;47863;55.766;37.672;2022-09-30T00:15:58;21.13;;;9.85;;
61905;SDS011;47863;55.766;37.672;2022-09-30T00:18:23;20.40;;;10.20;;
61905;SDS011;47863;55.766;37.672;2022-09-30T00:20:50;20.83;;;10.80;;
61905;SDS011;47863;55.766;37.672;2022-09-30T00:23:17;19.98;;;10.75;;
61905;SDS011;47863;55.766;37.672;2022-09-30T00:25:43;25.25;;;11.25;;
61905;SDS011;47863;55.766;37.672;2022-09-30T00:28:09;22.13;;;11.50;;
61905;SDS011;47863;55.766;37.672;2022-09-30T00:30:34;20.35;;;10.35;;
61905;SDS011;47863;55.766;37.672;2022-09-30T00:33:00;16.95;;;9.65;;
61905;SDS011;47863;55.766;37.672;2022-09-30T00:35:26;18.85;;;10.65;;
61905;SDS011;47863;55.766;37.672;2022-09-30T00:37:51;23.15;;;12.07;;
61905;SDS011;47863;55.766;37.672;2022-09-30T00:40:19;22.27;;;11.35;;
61905;SDS011;47863;55.766;37.672;2022-09-30T00:42:45;20.90;;;11.32;;
61905;SDS011;47863;55.766;37.672;2022-09-30T00:45:11;23.17;;;11.27;;
61905;SDS011;47863;55.766;37.672;2022-09-30T00:50:32;20.92;;;10.80;;
61905;SDS011;47863;55.766;37.672;2022-09-30T00:53:07;24.92;;;11.20;;
61905;SDS011;47863;55.766;37.672;2022-09-30T00:55:39;19.45;;;10.13;;
61905;SDS011;47863;55.766;37.672;2022-09-30T00:58:14;20.83;;;10.93;;
61905;SDS011;47863;55.766;37.672;2022-09-30T01:00:47;17.73;;;10.57;;
61905;SDS011;47863;55.766;37.672;2022-09-30T01:03:15;20.35;;;10.73;;
61905;SDS011;47863;55.766;37.672;2022-09-30T01:05:42;26.23;;;12.00;;
61905;SDS011;47863;55.766;37.672;2022-09-30T01:08:08;18.20;;;9.80;;
61905;SDS011;47863;55.766;37.672;2022-09-30T01:10:35;19.83;;;10.82;;
61905;SDS011;47863;55.766;37.672;2022-09-30T01:13:01;21.35;;;11.25;;
61905;SDS011;47863;55.766;37.672;2022-09-30T01:15:33;22.85;;;10.95;;
61905;SDS011;47863;55.766;37.672;2022-09-30T01:18:53;21.48;;;10.68;;
61905;SDS011;47863;55.766;37.672;2022-09-30T01:35:11;16.80;;;8.88;;
61905;SDS011;47863;55.766;37.672;2022-09-30T01:40:27;20.30;;;9.25;;
61905;SDS011;47863;55.766;37.672;2022-09-30T01:45:32;18.92;;;10.55;;
61905;SDS011;47863;55.766;37.672;2022-09-30T01:48:20;19.60;;;10.00;;
61905;SDS011;47863;55.766;37.672;2022-09-30T01:50:52;19.33;;;10.15;;
61905;SDS011;47863;55.766;37.672;2022-09-30T01:54:11;17.13;;;9.90;;
61905;SDS011;47863;55.766;37.672;2022-09-30T01:56:40;16.60;;;9.63;;
61905;SDS011;47863;55.766;37.672;2022-09-30T01:59:10;19.33;;;10.02;;
61905;SDS011;47863;55.766;37.672;2022-09-30T02:01:59;20.65;;;10.32;;
61905;SDS011;47863;55.766;37.672;2022-09-30T02:05:00;22.75;;;10.40;;
61905;SDS011;47863;55.766;37.672;2022-09-30T02:07:30;18.38;;;10.55;;
61905;SDS011;47863;55.766;37.672;2022-09-30T02:10:02;15.90;;;9.77;;
61905;SDS011;47863;55.766;37.672;2022-09-30T02:12:52;17.70;;;9.68;;
61905;SDS011;47863;55.766;37.672;2022-09-30T02:15:23;15.60;;;8.88;;
61905;SDS011;47863;55.766;37.672;2022-09-30T02:17:59;23.90;;;12.38;;
61905;SDS011;47863;55.766;37.672;2022-09-30T02:20:30;17.90;;;10.02;;
61905;SDS011;47863;55.766;37.672;2022-09-30T02:23:02;16.15;;;9.98;;
61905;SDS011;47863;55.766;37.672;2022-09-30T02:25:33;20.65;;;10.40;;
61905;SDS011;47863;55.766;37.672;2022-09-30T02:28:04;14.65;;;9.45;;
61905;SDS011;47863;55.766;37.672;2022-09-30T02:30:37;20.45;;;10.82;;
61905;SDS011;47863;55.766;37.672;2022-09-30T02:33:14;19.85;;;10.10;;
61905;SDS011;47863;55.766;37.672;2022-09-30T02:35:49;15.52;;;9.00;;
61905;SDS011;47863;55.766;37.672;2022-09-30T02:38:19;14.77;;;9.13;;
61905;SDS011;47863;55.766;37.672;2022-09-30T02:40:52;17.17;;;9.45;;
61905;SDS011;47863;55.766;37.672;2022-09-30T02:43:21;16.50;;;9.80;;
61905;SDS011;47863;55.766;37.672;2022-09-30T02:45:54;16.15;;;8.93;;
61905;SDS011;47863;55.766;37.672;2022-09-30T02:48:33;15.73;;;9.35;;
61905;SDS011;47863;55.766;37.672;2022-09-30T02:53:51;16.25;;;8.85;;
61905;SDS011;47863;55.766;37.672;2022-09-30T02:59:21;16.70;;;8.65;;
61905;SDS011;47863;55.766;37.672;2022-09-30T03:01:47;16.13;;;8.65;;
61905;SDS011;47863;55.766;37.672;2022-09-30T03:04:14;15.13;;;8.73;;
61905;SDS011;47863;55.766;37.672;2022-09-30T03:06:43;19.25;;;8.85;;
61905;SDS011;47863;55.766;37.672;2022-09-30T03:09:09;14.07;;;8.40;;
61905;SDS011;47863;55.766;37.672;2022-09-30T03:11:34;15.18;;;8.90;;
61905;SDS011;47863;55.766;37.672;2022-09-30T03:20:05;16.73;;;9.00;;
61905;SDS011;47863;55.766;37.672;2022-09-30T03:25:38;15.05;;;9.20;;
61905;SDS011;47863;55.766;37.672;2022-09-30T03:28:33;14.82;;;8.55;;
61905;SDS011;47863;55.766;37.672;2022-09-30T03:45:07;14.40;;;8.00;;
61905;SDS011;47863;55.766;37.672;2022-09-30T03:47:37;13.68;;;8.18;;
61905;SDS011;47863;55.766;37.672;2022-09-30T03:50:09;13.68;;;7.70;;
61905;SDS011;47863;55.766;37.672;2022-09-30T03:52:38;15.98;;;9.00;;
61905;SDS011;47863;55.766;37.672;2022-09-30T03:55:04;14.45;;;7.40;;
61905;SDS011;47863;55.766;37.672;2022-09-30T03:57:32;13.38;;;8.38;;
61905;SDS011;47863;55.766;37.672;2022-09-30T03:59:58;13.20;;;7.10;;
61905;SDS011;47863;55.766;37.672;2022-09-30T04:02:25;12.80;;;7.35;;
61905;SDS011;47863;55.766;37.672;2022-09-30T04:04:51;12.07;;;7.32;;
61905;SDS011;47863;55.766;37.672;2022-09-30T04:07:17;14.55;;;8.60;;
61905;SDS011;47863;55.766;37.672;2022-09-30T04:09:42;11.65;;;6.85;;
61905;SDS011;47863;55.766;37.672;2022-09-30T04:12:08;11.20;;;7.35;;
61905;SDS011;47863;55.766;37.672;2022-09-30T04:14:34;12.13;;;7.80;;
61905;SDS011;47863;55.766;37.672;2022-09-30T04:17:00;12.07;;;6.88;;
61905;SDS011;47863;55.766;37.672;2022-09-30T04:19:27;15.20;;;7.65;;
61905;SDS011;47863;55.766;37.672;2022-09-30T04:21:53;11.07;;;6.72;;
61905;SDS011;47863;55.766;37.672;2022-09-30T04:24:22;16.27;;;7.88;;
61905;SDS011;47863;55.766;37.672;2022-09-30T04:26:49;13.93;;;6.70;;
61905;SDS011;47863;55.766;37.672;2022-09-30T04:29:15;13.48;;;7.30;;
61905;SDS011;47863;55.766;37.672;2022-09-30T04:31:41;13.68;;;6.78;;
61905;SDS011;47863;55.766;37.672;2022-09-30T04:34:06;18.08;;;7.18;;
61905;SDS011;47863;55.766;37.672;2022-09-30T04:36:32;13.38;;;6.97;;
61905;SDS011;47863;55.766;37.672;2022-09-30T04:38:57;9.70;;;6.80;;
61905;SDS011;47863;55.766;37.672;2022-09-30T04:41:23;12.90;;;7.35;;
61905;SDS011;47863;55.766;37.672;2022-09-30T04:43:49;11.57;;;6.35;;
61905;SDS011;47863;55.766;37.672;2022-09-30T04:46:15;14.57;;;7.85;;
61905;SDS011;47863;55.766;37.672;2022-09-30T04:48:42;11.45;;;6.65;;
61905;SDS011;47863;55.766;37.672;2022-09-30T04:51:16;11.30;;;6.55;;
61905;SDS011;47863;55.766;37.672;2022-09-30T04:53:44;12.45;;;6.65;;
61905;SDS011;47863;55.766;37.672;2022-09-30T04:56:10;9.63;;;6.30;;
61905;SDS011;47863;55.766;37.672;2022-09-30T04:58:36;14.90;;;6.65;;
61905;SDS011;47863;55.766;37.672;2022-09-30T05:01:06;10.15;;;6.72;;
61905;SDS011;47863;55.766;37.672;2022-09-30T05:03:33;11.15;;;6.55;;
61905;SDS011;47863;55.766;37.672;2022-09-30T05:05:59;13.32;;;6.85;;
61905;SDS011;47863;55.766;37.672;2022-09-30T05:08:25;18.20;;;7.20;;
61905;SDS011;47863;55.766;37.672;2022-09-30T05:11:01;11.93;;;6.55;;
61905;SDS011;47863;55.766;37.672;2022-09-30T05:16:01;10.77;;;6.53;;
61905;SDS011;47863;55.766;37.672;2022-09-30T05:18:28;14.18;;;7.70;;
61905;SDS011;47863;55.766;37.672;2022-09-30T05:20:54;13.88;;;7.13;;
61905;SDS011;47863;55.766;37.672;2022-09-30T05:23:24;15.05;;;7.10;;
61905;SDS011;47863;55.766;37.672;2022-09-30T05:25:52;10.98;;;6.53;;
61905;SDS011;47863;55.766;37.672;2022-09-30T05:28:17;18.38;;;6.93;;
61905;SDS011;47863;55.766;37.672;2022-09-30T05:30:43;14.93;;;6.60;;
61905;SDS011;47863;55.766;37.672;2022-09-30T05:33:10;13.23;;;6.88;;
61905;SDS011;47863;55.766;37.672;2022-09-30T05:35:38;14.75;;;6.80;;
61905;SDS011;47863;55.766;37.672;2022-09-30T05:38:05;16.77;;;6.40;;
61905;SDS011;47863;55.766;37.672;2022-09-30T05:40:32;23.05;;;6.50;;
61905;SDS011;47863;55.766;37.672;2022-09-30T05:42:58;12.43;;;6.70;;
61905;SDS011;47863;55.766;37.672;2022-09-30T05:45:24;16.23;;;6.50;;
61905;SDS011;47863;55.766;37.672;2022-09-30T05:47:51;20.25;;;7.15;;
61905;SDS011;47863;55.766;37.672;2022-09-30T05:50:17;10.55;;;6.60;;
61905;SDS011;47863;55.766;37.672;2022-09-30T05:52:44;9.48;;;6.72;;
61905;SDS011;47863;55.766;37.672;2022-09-30T05:55:10;13.00;;;7.15;;
61905;SDS011;47863;55.766;37.672;2022-09-30T05:57:36;15.40;;;7.15;;
61905;SDS011;47863;55.766;37.672;2022-09-30T06:00:02;15.10;;;6.88;;
61905;SDS011;47863;55.766;37.672;2022-09-30T06:02:29;16.13;;;6.50;;
61905;SDS011;47863;55.766;37.672;2022-09-30T06:04:54;12.50;;;6.03;;
61905;SDS011;47863;55.766;37.672;2022-09-30T06:07:20;16.63;;;7.03;;
61905;SDS011;47863;55.766;37.672;2022-09-30T06:09:45;13.27;;;7.32;;
61905;SDS011;47863;55.766;37.672;2022-09-30T06:12:11;16.27;;;6.72;;
61905;SDS011;47863;55.766;37.672;2022-09-30T06:14:36;10.07;;;5.72;;
61905;SDS011;47863;55.766;37.672;2022-09-30T06:17:02;16.85;;;6.72;;
61905;SDS011;47863;55.766;37.672;2022-09-30T06:19:29;17.73;;;7.40;;
61905;SDS011;47863;55.766;37.672;2022-09-30T06:21:55;18.25;;;7.45;;
61905;SDS011;47863;55.766;37.672;2022-09-30T06:24:21;17.33;;;6.13;;
61905;SDS011;47863;55.766;37.672;2022-09-30T06:26:47;20.00;;;7.30;;
61905;SDS011;47863;55.766;37.672;2022-09-30T06:29:13;13.85;;;6.93;;
61905;SDS011;47863;55.766;37.672;2022-09-30T06:31:39;10.98;;;6.43;;
61905;SDS011;47863;55.766;37.672;2022-09-30T06:34:04;14.15;;;6.35;;
61905;SDS011;47863;55.766;37.672;2022-09-30T06:36:30;14.45;;;6.80;;
61905;SDS011;47863;55.766;37.672;2022-09-30T06:38:59;14.27;;;6.57;;
61905;SDS011;47863;55.766;37.672;2022-09-30T06:41:25;14.50;;;6.88;;
61905;SDS011;47863;55.766;37.672;2022-09-30T06:43:52;11.05;;;6.47;;
61905;SDS011;47863;55.766;37.672;2022-09-30T06:46:18;16.27;;;6.22;;
61905;SDS011;47863;55.766;37.672;2022-09-30T06:48:44;11.80;;;6.55;;
61905;SDS011;47863;55.766;37.672;2022-09-30T06:51:09;19.20;;;6.95;;
61905;SDS011;47863;55.766;37.672;2022-09-30T06:53:38;12.02;;;6.65;;
61905;SDS011;47863;55.766;37.672;2022-09-30T06:56:04;15.35;;;5.97;;
61905;SDS011;47863;55.766;37.672;2022-09-30T06:58:30;14.10;;;5.82;;
61905;SDS011;47863;55.766;37.672;2022-09-30T07:00:57;17.38;;;6.53;;
61905;SDS011;47863;55.766;37.672;2022-09-30T07:03:29;16.20;;;6.60;;
61905;SDS011;47863;55.766;37.672;2022-09-30T07:05:58;20.20;;;9.60;;
61905;SDS011;47863;55.766;37.672;2022-09-30T07:08:25;17.92;;;7.22;;
61905;SDS011;47863;55.766;37.672;2022-09-30T07:10:59;15.45;;;6.80;;
61905;SDS011;47863;55.766;37.672;2022-09-30T07:13:26;21.67;;;7.07;;
61905;SDS011;47863;55.766;37.672;2022-09-30T07:15:52;14.02;;;6.22;;
61905;SDS011;47863;55.766;37.672;2022-09-30T07:18:21;16.08;;;6.10;;
61905;SDS011;47863;55.766;37.672;2022-09-30T07:20:48;26.55;;;6.70;;
61905;SDS011;47863;55.766;37.672;2022-09-30T07:23:15;10.95;;;5.90;;
61905;SDS011;47863;55.766;37.672;2022-09-30T07:25:48;13.82;;;6.40;;
61905;SDS011;47863;55.766;37.672;2022-09-30T07:28:15;17.05;;;6.28;;
61905;SDS011;47863;55.766;37.672;2022-09-30T07:30:41;16.30;;;6.25;;
61905;SDS011;47863;55.766;37.672;2022-09-30T07:33:07;12.27;;;5.40;;
61905;SDS011;47863;55.766;37.672;2022-09-30T07:35:33;9.32;;;5.75;;
61905;SDS011;47863;55.766;37.672;2022-09-30T07:37:59;12.70;;;6.10;;
61905;SDS011;47863;55.766;37.672;2022-09-30T07:40:25;16.95;;;5.78;;
61905;SDS011;47863;55.766;37.672;2022-09-30T07:42:55;15.27;;;5.95;;
61905;SDS011;47863;55.766;37.672;2022-09-30T07:45:22;10.77;;;5.68;;
61905;SDS011;47863;55.766;37.672;2022-09-30T07:47:47;12.45;;;5.50;;
61905;SDS011;47863;55.766;37.672;2022-09-30T07:50:13;11.38;;;6.07;;
61905;SDS011;47863;55.766;37.672;2022-09-30T07:52:39;15.55;;;6.22;;
61905;SDS011;47863;55.766;37.672;2022-09-30T07:55:05;14.10;;;5.75;;
61905;SDS011;47863;55.766;37.672;2022-09-30T07:57:31;11.70;;;6.07;;
61905;SDS011;47863;55.766;37.672;2022-09-30T07:59:57;14.27;;;6.70;;
61905;SDS011;47863;55.766;37.672;2022-09-30T08:02:22;13.10;;;6.57;;
61905;SDS011;47863;55.766;37.672;2022-09-30T08:04:48;17.88;;;6.57;;
61905;SDS011;47863;55.766;37.672;2022-09-30T08:07:15;12.43;;;6.60;;
61905;SDS011;47863;55.766;37.672;2022-09-30T08:09:41;16.60;;;6.20;;
61905;SDS011;47863;55.766;37.672;2022-09-30T08:12:07;16.30;;;7.03;;
61905;SDS011;47863;55.766;37.672;2022-09-30T08:14:33;17.65;;;6.65;;
61905;SDS011;47863;55.766;37.672;2022-09-30T08:16:59;17.05;;;6.63;;
61905;SDS011;47863;55.766;37.672;2022-09-30T08:19:25;12.88;;;6.80;;
61905;SDS011;47863;55.766;37.672;2022-09-30T08:21:52;13.57;;;6.28;;
61905;SDS011;47863;55.766;37.672;2022-09-30T08:24:19;14.20;;;7.32;;
61905;SDS011;47863;55.766;37.672;2022-09-30T08:26:45;21.08;;;7.18;;
61905;SDS011;47863;55.766;37.672;2022-09-30T08:29:11;14.88;;;7.22;;
61905;SDS011;47863;55.766;37.672;2022-09-30T08:31:39;11.75;;;7.05;;
61905;SDS011;47863;55.766;37.672;2022-09-30T08:34:05;12.98;;;7.22;;
61905;SDS011;47863;55.766;37.672;2022-09-30T08:36:31;16.95;;;6.85;;
61905;SDS011;47863;55.766;37.672;2022-09-30T08:38:56;18.20;;;7.53;;
61905;SDS011;47863;55.766;37.672;2022-09-30T08:44:37;21.13;;;7.00;;
61905;SDS011;47863;55.766;37.672;2022-09-30T08:52:26;17.48;;;7.95;;
61905;SDS011;47863;55.766;37.672;2022-09-30T08:54:56;20.60;;;8.80;;
61905;SDS011;47863;55.766;37.672;2022-09-30T08:57:22;19.27;;;7.80;;
61905;SDS011;47863;55.766;37.672;2022-09-30T08:59:56;21.10;;;8.10;;
61905;SDS011;47863;55.766;37.672;2022-09-30T09:02:32;16.52;;;8.77;;
61905;SDS011;47863;55.766;37.672;2022-09-30T09:05:03;14.38;;;9.15;;
61905;SDS011;47863;55.766;37.672;2022-09-30T09:13:11;19.67;;;9.95;;
61905;SDS011;47863;55.766;37.672;2022-09-30T09:23:59;15.35;;;8.73;;
61905;SDS011;47863;55.766;37.672;2022-09-30T09:26:29;14.48;;;8.35;;
61905;SDS011;47863;55.766;37.672;2022-09-30T09:31:56;18.55;;;8.48;;
61905;SDS011;47863;55.766;37.672;2022-09-30T09:34:23;23.10;;;9.95;;
61905;SDS011;47863;55.766;37.672;2022-09-30T09:45:21;22.45;;;9.60;;
61905;SDS011;47863;55.766;37.672;2022-09-30T09:47:53;24.13;;;9.95;;
61905;SDS011;47863;55.766;37.672;2022-09-30T09:56:13;20.27;;;10.80;;
61905;SDS011;47863;55.766;37.672;2022-09-30T10:01:39;21.55;;;10.25;;
61905;SDS011;47863;55.766;37.672;2022-09-30T10:04:17;19.48;;;9.98;;
61905;SDS011;47863;55.766;37.672;2022-09-30T10:06:50;24.75;;;10.60;;
61905;SDS011;47863;55.766;37.672;2022-09-30T10:14:29;25.27;;;10.68;;
61905;SDS011;47863;55.766;37.672;2022-09-30T10:17:18;21.27;;;10.70;;
61905;SDS011;47863;55.766;37.672;2022-09-30T10:19:51;18.58;;;10.48;;
61905;SDS011;47863;55.766;37.672;2022-09-30T10:22:22;20.20;;;8.00;;
61905;SDS011;47863;55.766;37.672;2022-09-30T10:24:51;19.33;;;11.93;;
61905;SDS011;47863;55.766;37.672;2022-09-30T10:27:32;22.50;;;10.48;;
61905;SDS011;47863;55.766;37.672;2022-09-30T10:30:01;21.15;;;11.00;;
61905;SDS011;47863;55.766;37.672;2022-09-30T10:32:45;17.10;;;9.15;;
61905;SDS011;47863;55.766;37.672;2022-09-30T10:35:15;24.48;;;10.57;;
61905;SDS011;47863;55.766;37.672;2022-09-30T10:37:51;19.77;;;10.63;;
61905;SDS011;47863;55.766;37.672;2022-09-30T10:40:18;12.88;;;7.68;;
61905;SDS011;47863;55.766;37.672;2022-09-30T10:42:47;15.48;;;10.20;;
61905;SDS011;47863;55.766;37.672;2022-09-30T10:45:23;19.25;;;10.32;;
61905;SDS011;47863;55.766;37.672;2022-09-30T10:47:57;18.23;;;9.93;;
61905;SDS011;47863;55.766;37.672;2022-09-30T10:50:27;20.23;;;10.50;;
61905;SDS011;47863;55.766;37.672;2022-09-30T10:53:03;20.02;;;10.63;;
61905;SDS011;47863;55.766;37.672;2022-09-30T10:55:41;20.33;;;10.88;;
61905;SDS011;47863;55.766;37.672;2022-09-30T10:58:22;15.45;;;10.10;;
61905;SDS011;47863;55.766;37.672;2022-09-30T11:01:25;19.83;;;11.32;;
61905;SDS011;47863;55.766;37.672;2022-09-30T11:04:16;16.80;;;8.60;;
61905;SDS011;47863;55.766;37.672;2022-09-30T11:07:29;18.02;;;11.13;;
61905;SDS011;47863;55.766;37.672;2022-09-30T11:10:02;21.10;;;11.52;;
61905;SDS011;47863;55.766;37.672;2022-09-30T11:18:06;20.80;;;11.75;;
61905;SDS011;47863;55.766;37.672;2022-09-30T11:20:49;27.20;;;11.45;;
61905;SDS011;47863;55.766;37.672;2022-09-30T11:23:24;22.98;;;11.93;;
61905;SDS011;47863;55.766;37.672;2022-09-30T11:26:01;20.95;;;10.73;;
61905;SDS011;47863;55.766;37.672;2022-09-30T11:31:17;25.83;;;12.63;;
61905;SDS011;47863;55.766;37.672;2022-09-30T11:37:10;22.48;;;12.45;;
61905;SDS011;47863;55.766;37.672;2022-09-30T11:45:48;21.33;;;12.00;;
61905;SDS011;47863;55.766;37.672;2022-09-30T11:56:28;28.95;;;11.93;;
61905;SDS011;47863;55.766;37.672;2022-09-30T11:58:59;21.88;;;11.93;;
61905;SDS011;47863;55.766;37.672;2022-09-30T12:06:48;22.50;;;11.45;;
61905;SDS011;47863;55.766;37.672;2022-09-30T12:09:23;27.65;;;11.40;;
61905;SDS011;47863;55.766;37.672;2022-09-30T12:15:13;22.98;;;11.80;;
61905;SDS011;47863;55.766;37.672;2022-09-30T12:20:06;20.17;;;11.60;;
61905;SDS011;47863;55.766;37.672;2022-09-30T12:22:43;24.05;;;10.85;;
61905;SDS011;47863;55.766;37.672;2022-09-30T12:25:24;19.95;;;11.57;;
61905;SDS011;47863;55.766;37.672;2022-09-30T12:28:06;21.80;;;9.98;;
61905;SDS011;47863;55.766;37.672;2022-09-30T12:42:04;21.90;;;10.70;;
61905;SDS011;47863;55.766;37.672;2022-09-30T12:45:21;19.05;;;11.20;;
61905;SDS011;47863;55.766;37.672;2022-09-30T12:47:53;18.05;;;10.55;;
61905;SDS011;47863;55.766;37.672;2022-09-30T12:50:23;18.25;;;10.40;;
61905;SDS011;47863;55.766;37.672;2022-09-30T12:52:53;20.65;;;10.45;;
61905;SDS011;47863;55.766;37.672;2022-09-30T12:57:53;16.42;;;9.00;;
61905;SDS011;47863;55.766;37.672;2022-09-30T13:00:24;11.65;;;6.80;;
61905;SDS011;47863;55.766;37.672;2022-09-30T13:10:30;16.33;;;9.02;;
61905;SDS011;47863;55.766;37.672;2022-09-30T13:15:41;18.88;;;9.10;;
61905;SDS011;47863;55.766;37.672;2022-09-30T13:23:31;17.17;;;8.35;;
61905;SDS011;47863;55.766;37.672;2022-09-30T13:28:52;10.77;;;6.57;;
61905;SDS011;47863;55.766;37.672;2022-09-30T13:31:25;5.70;;;3.60;;
61905;SDS011;47863;55.766;37.672;2022-09-30T13:36:29;13.02;;;8.02;;
61905;SDS011;47863;55.766;37.672;2022-09-30T13:47:09;9.70;;;5.18;;
61905;SDS011;47863;55.766;37.672;2022-09-30T13:52:25;15.27;;;9.07;;
61905;SDS011;47863;55.766;37.672;2022-09-30T13:54:55;15.65;;;7.07;;
61905;SDS011;47863;55.766;37.672;2022-09-30T13:57:32;11.90;;;6.97;;
61905;SDS011;47863;55.766;37.672;2022-09-30T14:00:13;19.77;;;8.80;;
61905;SDS011;47863;55.766;37.672;2022-09-30T14:21:52;12.43;;;8.38;;
61905;SDS011;47863;55.766;37.672;2022-09-30T14:24:24;9.20;;;5.70;;
61905;SDS011;47863;55.766;37.672;2022-09-30T14:29:21;13.07;;;8.32;;
61905;SDS011;47863;55.766;37.672;2022-09-30T14:31:52;17.45;;;9.00;;
61905;SDS011;47863;55.766;37.672;2022-09-30T14:34:20;15.50;;;8.55;;
61905;SDS011;47863;55.766;37.672;2022-09-30T14:36:49;13.65;;;7.43;;
61905;SDS011;47863;55.766;37.672;2022-09-30T14:39:19;17.42;;;9.05;;
61905;SDS011;47863;55.766;37.672;2022-09-30T14:41:52;16.73;;;9.25;;
61905;SDS011;47863;55.766;37.672;2022-09-30T14:44:22;22.23;;;9.77;;
61905;SDS011;47863;55.766;37.672;2022-09-30T14:46:52;13.95;;;8.98;;
61905;SDS011;47863;55.766;37.672;2022-09-30T14:49:25;22.50;;;9.50;;
61905;SDS011;47863;55.766;37.672;2022-09-30T14:51:58;12.00;;;6.45;;
61905;SDS011;47863;55.766;37.672;2022-09-30T14:54:25;17.38;;;9.00;;
61905;SDS011;47863;55.766;37.672;2022-09-30T14:56:55;20.30;;;9.02;;
61905;SDS011;47863;55.766;37.672;2022-09-30T14:59:26;17.52;;;9.60;;
61905;SDS011;47863;55.766;37.672;2022-09-30T15:01:58;17.73;;;9.40;;
61905;SDS011;47863;55.766;37.672;2022-09-30T15:04:29;14.88;;;8.95;;
61905;SDS011;47863;55.766;37.672;2022-09-30T15:06:57;18.88;;;9.70;;
61905;SDS011;47863;55.766;37.672;2022-09-30T15:09:31;15.30;;;9.43;;
61905;SDS011;47863;55.766;37.672;2022-09-30T15:12:10;15.00;;;8.10;;
61905;SDS011;47863;55.766;37.672;2022-09-30T15:14:55;16.02;;;9.00;;
61905;SDS011;47863;55.766;37.672;2022-09-30T15:17:26;14.82;;;9.40;;
61905;SDS011;47863;55.766;37.672;2022-09-30T15:19:54;16.48;;;9.10;;
61905;SDS011;47863;55.766;37.672;2022-09-30T15:22:25;14.55;;;9.60;;
61905;SDS011;47863;55.766;37.672;2022-09-30T15:24:53;16.40;;;9.82;;
61905;SDS011;47863;55.766;37.672;2022-09-30T15:27:20;26.73;;;9.85;;
61905;SDS011;47863;55.766;37.672;2022-09-30T15:30:26;16.35;;;9.70;;
61905;SDS011;47863;55.766;37.672;2022-09-30T15:32:47;14.68;;;7.20;;
61905;SDS011;47863;55.766;37.672;2022-09-30T15:35:14;10.98;;;5.25;;
61905;SDS011;47863;55.766;37.672;2022-09-30T15:37:41;14.75;;;9.85;;
61905;SDS011;47863;55.766;37.672;2022-09-30T15:40:13;16.92;;;9.63;;
61905;SDS011;47863;55.766;37.672;2022-09-30T15:43:00;16.73;;;9.90;;
61905;SDS011;47863;55.766;37.672;2022-09-30T15:45:36;16.13;;;9.38;;
61905;SDS011;47863;55.766;37.672;2022-09-30T15:48:06;18.15;;;10.75;;
61905;SDS011;47863;55.766;37.672;2022-09-30T15:50:53;17.67;;;9.70;;
61905;SDS011;47863;55.766;37.672;2022-09-30T15:53:21;18.52;;;10.75;;
61905;SDS011;47863;55.766;37.672;2022-09-30T15:55:53;15.80;;;9.13;;
61905;SDS011;47863;55.766;37.672;2022-09-30T16:04:03;20.70;;;11.90;;
61905;SDS011;47863;55.766;37.672;2022-09-30T16:07:15;20.50;;;11.32;;
61905;SDS011;47863;55.766;37.672;2022-09-30T16:17:17;16.65;;;10.15;;
61905;SDS011;47863;55.766;37.672;2022-09-30T16:20:21;23.27;;;13.70;;
61905;SDS011;47863;55.766;37.672;2022-09-30T16:28:20;26.92;;;14.15;;
61905;SDS011;47863;55.766;37.672;2022-09-30T16:30:49;24.63;;;12.05;;
61905;SDS011;47863;55.766;37.672;2022-09-30T16:33:18;27.90;;;13.95;;
61905;SDS011;47863;55.766;37.672;2022-09-30T16:35:44;22.60;;;13.25;;
61905;SDS011;47863;55.766;37.672;2022-09-30T16:38:14;27.25;;;14.25;;
61905;SDS011;47863;55.766;37.672;2022-09-30T16:40:41;29.33;;;12.63;;
61905;SDS011;47863;55.766;37.672;2022-09-30T16:43:07;22.42;;;11.65;;
61905;SDS011;47863;55.766;37.672;2022-09-30T16:45:35;22.90;;;13.70;;
61905;SDS011;47863;55.766;37.672;2022-09-30T16:48:15;22.90;;;12.82;;
61905;SDS011;47863;55.766;37.672;2022-09-30T16:50:45;24.33;;;11.63;;
61905;SDS011;47863;55.766;37.672;2022-09-30T16:53:32;21.05;;;12.38;;
61905;SDS011;47863;55.766;37.672;2022-09-30T16:55:58;23.80;;;12.85;;
61905;SDS011;47863;55.766;37.672;2022-09-30T16:58:24;25.15;;;13.27;;
61905;SDS011;47863;55.766;37.672;2022-09-30T17:00:50;22.52;;;13.05;;
61905;SDS011;47863;55.766;37.672;2022-09-30T17:03:16;20.33;;;11.95;;
61905;SDS011;47863;55.766;37.672;2022-09-30T17:05:44;19.98;;;12.15;;
61905;SDS011;47863;55.766;37.672;2022-09-30T17:08:11;26.90;;;13.35;;
61905;SDS011;47863;55.766;37.672;2022-09-30T17:10:38;20.60;;;11.02;;
61905;SDS011;47863;55.766;37.672;2022-09-30T17:13:05;22.27;;;11.93;;
61905;SDS011;47863;55.766;37.672;2022-09-30T17:15:32;13.65;;;8.57;;
61905;SDS011;47863;55.766;37.672;2022-09-30T17:18:02;22.08;;;12.82;;
61905;SDS011;47863;55.766;37.672;2022-09-30T17:20:31;25.10;;;14.83;;
61905;SDS011;47863;55.766;37.672;2022-09-30T17:22:58;23.48;;;13.55;;
61905;SDS011;47863;55.766;37.672;2022-09-30T17:25:23;23.80;;;12.85;;
61905;SDS011;47863;55.766;37.672;2022-09-30T17:27:49;23.35;;;11.70;;
61905;SDS011;47863;55.766;37.672;2022-09-30T17:30:15;19.70;;;11.40;;
61905;SDS011;47863;55.766;37.672;2022-09-30T17:32:41;14.80;;;9.00;;
61905;SDS011;47863;55.766;37.672;2022-09-30T17:35:07;21.63;;;12.38;;
61905;SDS011;47863;55.766;37.672;2022-09-30T17:37:33;20.52;;;11.80;;
61905;SDS011;47863;55.766;37.672;2022-09-30T17:40:01;20.90;;;11.98;;
61905;SDS011;47863;55.766;37.672;2022-09-30T17:42:47;22.25;;;11.23;;
61905;SDS011;47863;55.766;37.672;2022-09-30T17:45:31;18.40;;;11.88;;
61905;SDS011;47863;55.766;37.672;2022-09-30T17:47:58;21.63;;;11.98;;
61905;SDS011;47863;55.766;37.672;2022-09-30T17:50:23;18.92;;;10.98;;
61905;SDS011;47863;55.766;37.672;2022-09-30T17:52:49;21.85;;;11.13;;
61905;SDS011;47863;55.766;37.672;2022-09-30T17:55:15;22.58;;;10.77;;
61905;SDS011;47863;55.766;37.672;2022-09-30T17:57:41;21.90;;;10.70;;
61905;SDS011;47863;55.766;37.672;2022-09-30T18:00:06;10.55;;;5.47;;
61905;SDS011;47863;55.766;37.672;2022-09-30T18:02:32;17.60;;;10.50;;
61905;SDS011;47863;55.766;37.672;2022-09-30T18:04:58;17.77;;;11.27;;
61905;SDS011;47863;55.766;37.672;2022-09-30T18:07:23;17.42;;;10.43;;
61905;SDS011;47863;55.766;37.672;2022-09-30T18:09:51;14.23;;;7.57;;
61905;SDS011;47863;55.766;37.672;2022-09-30T18:12:17;18.02;;;10.50;;
61905;SDS011;47863;55.766;37.672;2022-09-30T18:14:42;20.88;;;10.30;;
61905;SDS011;47863;55.766;37.672;2022-09-30T18:17:08;17.85;;;10.57;;
61905;SDS011;47863;55.766;37.672;2022-09-30T18:19:33;27.45;;;16.75;;